KOGB/OGB METAR and TAF weather

Enter ICAO airport designator
Station Type Date Time Source
KOGB METAR 2020/01/28 11:53 UTC NOAA

KOGB 281153Z AUTO 31003KT 10SM CLR 04/02 A2999 RMK AO2 SLP155 70001 T00390022 10072 20033 53015


Station Type Date Time Source
KOGB Decoded METAR 2020/01/28 11:53 UTC NOAA

ORANGEBURG MUNICIPAL AIRPORT, SC, United States (KOGB) 33-28N 080-51W 59M
Jan 28, 2020 - 06:53 AM EST / 2020.01.28 1153 UTC
Wind: from the NW (310 degrees) at 3 MPH (3 KT):0
Visibility: 10 mile(s):0
Sky conditions: clear
Temperature: 39.0 F (3.9 C)
Dew Point: 36.0 F (2.2 C)
Relative Humidity: 88%
Pressure (altimeter): 29.99 in. Hg (1015 hPa)
Pressure tendency: 0.04 inches (1.5 hPa) higher than three hours ago
ob: KOGB 281153Z AUTO 31003KT 10SM CLR 04/02 A2999 RMK AO2 SLP155 70001 T00390022 10072 20033 53015
cycle: 12

Station Type Date Time Source
KOGB TAF 2020/01/28 12:33 UTC NOAA

TAF KOGB 281129Z 2812/2912 VRB03KT P6SM SKC
FM290600 00000KT P6SM SCT150

Example: see airport list